Main page
METAR-TAF:

METAR-TAF

Airports :

Ángel S. Adami Airport

Montevideo, Uruguay

latitude: 34-47S, longitude: 056-15W, elevation: 53 m

Current weather observation

The report was made 15 minutes ago, at 07:00 UTC
Wind 15 kt from the South/Southeast
Temperature 11°C
Humidity 66%
Pressure 1020 hPa
Visibility 10 km or more
Scattered clouds at a height of 1600 ft
Overcast at a height of 7000 ft

METAR: SUAA 240700Z 16015KT 9999 SCT016 OVC070 11/05 Q1020

Time: 04:15 (07:15 UTC)

Forecast

The report was made 1 hour and 45 minutes ago, at 05:30 UTC
Forecast valid from 24 at 06 UTC to 25 at 06 UTC
Wind 15 kt from the South
Visibility 10 km or more
Broken clouds at a height of 2000 ft
Overcast at a height of 7000 ft
Temporary
from 24 at 06 UTC to 24 at 14 UTC
Wind 18 kt from the South with gusts up to 28 kt
Visibility: 5000 m
Broken clouds at a height of 1700 ft
Overcast at a height of 6000 ft
rain,

TAF: SUAA 240530Z 2406/2506 17015KT 9999 BKN020 OVC070 TX12/2418Z TN08/2410Z TEMPO 2406/2414 17018G28KT 5000 RA BKN017 OVC060

Weather observations and forecasts of more than 4000 airports (METAR and TAF reports).

The available stations are represented by yellow and red dots on the map.

Hover mouse over dot to see the name of the station.

Then click to see weather observations and forecasts.

To change the map : click on the green buttons with a black cross to zoom in, on the green button with a dash to zoom out, or on the green arrows for adjacent maps.


METAR-TAF: